createdAt,value
2022-12-01T00:04:38.039Z,23.67
2022-12-01T00:09:59.828Z,24.30
2022-12-01T00:15:02.736Z,24.00
2022-12-01T00:20:06.952Z,22.60
2022-12-01T00:25:11.474Z,24.13
2022-12-01T00:30:14.906Z,23.27
2022-12-01T00:35:18.419Z,23.43
2022-12-01T00:40:22.777Z,25.00
2022-12-01T00:45:25.902Z,23.27
2022-12-01T00:50:28.821Z,24.07
2022-12-01T00:55:33.079Z,23.13
2022-12-01T01:00:38.673Z,21.27
2022-12-01T01:05:43.456Z,24.23
2022-12-01T01:10:49.108Z,22.87
2022-12-01T01:15:59.798Z,22.10
2022-12-01T01:21:05.824Z,22.83
2022-12-01T01:26:13.270Z,23.50
2022-12-01T01:31:20.453Z,21.27
2022-12-01T01:36:24.336Z,23.13
2022-12-01T01:41:28.893Z,22.63
2022-12-01T01:46:33.809Z,23.77
2022-12-01T01:51:42.184Z,20.00
2022-12-01T01:56:49.100Z,21.27
2022-12-01T02:01:58.376Z,21.03
2022-12-01T02:07:01.803Z,20.57
2022-12-01T02:12:22.071Z,20.80
2022-12-01T02:17:41.383Z,22.30
2022-12-01T02:22:56.871Z,21.33
2022-12-01T02:28:23.280Z,21.00
2022-12-01T02:33:36.691Z,20.87
2022-12-01T02:38:44.462Z,23.73
2022-12-01T02:43:56.521Z,21.50
2022-12-01T02:49:05.775Z,23.20
2022-12-01T02:54:09.909Z,22.97
2022-12-01T02:59:15.194Z,21.60
2022-12-01T03:04:40.093Z,23.00
2022-12-01T03:09:52.990Z,22.27
2022-12-01T03:15:04.348Z,20.10
2022-12-01T03:20:15.985Z,20.63
2022-12-01T03:25:20.985Z,22.10
2022-12-01T03:30:24.992Z,22.03
2022-12-01T03:35:35.957Z,22.23
2022-12-01T03:40:40.415Z,22.57
2022-12-01T03:45:55.754Z,24.47
2022-12-01T03:51:15.054Z,21.20
2022-12-01T03:56:21.875Z,22.20
2022-12-01T04:01:26.518Z,20.90
2022-12-01T04:06:30.907Z,24.10
2022-12-01T04:11:51.079Z,21.37
2022-12-01T04:16:54.119Z,23.80
2022-12-01T04:21:58.433Z,23.30
2022-12-01T04:27:01.285Z,22.47
2022-12-01T04:32:04.334Z,23.13
2022-12-01T04:37:09.980Z,22.90
2022-12-01T04:42:12.961Z,23.93
2022-12-01T04:47:15.940Z,22.17
2022-12-01T04:52:20.211Z,22.03
2022-12-01T04:57:23.089Z,21.50
2022-12-01T05:02:26.009Z,22.60
2022-12-01T05:07:30.479Z,21.00
2022-12-01T05:12:33.974Z,21.90
2022-12-01T05:17:37.333Z,23.47
2022-12-01T05:23:04.254Z,24.10
2022-12-01T05:28:04.877Z,25.33
2022-12-01T05:33:07.852Z,22.90
2022-12-01T05:38:12.284Z,23.43
2022-12-01T05:43:15.216Z,24.00
2022-12-01T05:48:18.359Z,23.83
2022-12-01T05:53:22.936Z,27.83
2022-12-01T05:58:25.866Z,23.80
2022-12-01T06:03:28.878Z,25.37
2022-12-01T06:08:33.265Z,25.30
2022-12-01T06:13:36.239Z,24.47
2022-12-01T06:18:40.697Z,27.40
2022-12-01T06:23:44.949Z,24.57
2022-12-01T06:28:47.852Z,24.93
2022-12-01T06:33:50.804Z,25.60
2022-12-01T06:38:55.134Z,24.03
2022-12-01T06:43:58.215Z,25.60
2022-12-01T06:49:01.183Z,24.10
2022-12-01T06:54:05.958Z,25.30
2022-12-01T06:59:09.000Z,22.00
2022-12-01T07:04:12.158Z,22.60
2022-12-01T07:09:16.440Z,22.10
2022-12-01T07:14:23.726Z,20.43
2022-12-01T07:19:26.918Z,21.27
2022-12-01T07:24:31.890Z,22.10
2022-12-01T07:29:34.897Z,23.30
2022-12-01T07:34:37.783Z,23.13
2022-12-01T07:39:42.056Z,23.07
2022-12-01T07:44:45.034Z,25.80
2022-12-01T07:49:48.327Z,24.03
2022-12-01T07:54:52.854Z,32.10
2022-12-01T07:59:55.785Z,27.37
2022-12-01T08:04:58.665Z,22.73
2022-12-01T08:45:37.988Z,31.10
2022-12-01T09:09:16.589Z,28.93
2022-12-01T09:15:32.797Z,27.50
2022-12-01T09:30:54.454Z,31.30
2022-12-01T09:35:59.329Z,35.40
2022-12-01T09:41:05.494Z,31.57
2022-12-01T09:46:17.187Z,33.53
2022-12-01T09:51:22.486Z,28.80
2022-12-01T09:56:27.474Z,30.77
2022-12-01T10:01:35.829Z,30.73
2022-12-01T10:06:41.187Z,30.70
2022-12-01T10:11:47.103Z,32.13
2022-12-01T10:17:00.563Z,31.90
2022-12-01T10:22:23.759Z,32.07
2022-12-01T10:27:36.846Z,30.83
2022-12-01T10:32:53.738Z,31.33
2022-12-01T10:38:07.931Z,32.33
2022-12-01T10:43:11.845Z,32.30
2022-12-01T10:48:19.309Z,34.40
2022-12-01T10:53:29.555Z,33.80
2022-12-01T10:58:34.849Z,33.60
2022-12-01T11:03:41.417Z,35.30
2022-12-01T11:08:47.305Z,34.73
2022-12-01T11:13:50.396Z,34.40
2022-12-01T11:19:09.260Z,35.40
2022-12-01T11:24:29.059Z,35.47
2022-12-01T11:29:36.942Z,34.17
2022-12-01T11:34:42.182Z,35.47
2022-12-01T11:39:48.332Z,33.70
2022-12-01T11:44:54.437Z,35.13
2022-12-01T11:50:01.413Z,34.20
2022-12-01T11:55:22.783Z,34.37
2022-12-01T12:00:28.898Z,31.40
2022-12-01T12:06:38.347Z,29.63
2022-12-01T12:11:40.289Z,32.30
2022-12-01T12:17:02.869Z,30.23
2022-12-01T12:22:21.456Z,30.40
2022-12-01T12:27:34.128Z,27.23
2022-12-01T12:32:58.445Z,33.20
2022-12-01T12:38:09.095Z,29.33
2022-12-01T12:43:30.478Z,28.80
2022-12-01T12:49:18.560Z,29.93
2022-12-01T12:54:27.329Z,30.97
2022-12-01T12:59:35.398Z,29.50
2022-12-01T13:04:44.150Z,26.33
2022-12-01T13:09:58.309Z,28.80
2022-12-01T13:15:15.382Z,27.13
2022-12-01T13:20:21.861Z,26.30
2022-12-01T13:25:31.404Z,27.83
2022-12-01T13:30:34.390Z,28.03
2022-12-01T13:35:40.076Z,28.70
2022-12-01T13:40:44.537Z,28.60
2022-12-01T13:45:49.351Z,27.10
2022-12-01T13:50:58.079Z,30.30
2022-12-01T13:56:44.057Z,27.57
2022-12-01T14:02:07.366Z,26.20
2022-12-01T14:07:20.524Z,28.00
2022-12-01T14:12:29.110Z,26.57
2022-12-01T14:17:36.071Z,27.40
2022-12-01T14:22:42.007Z,26.87
2022-12-01T14:27:44.996Z,29.93
2022-12-01T14:32:49.267Z,28.80
2022-12-01T14:37:52.231Z,29.80
2022-12-01T14:43:16.598Z,28.60
2022-12-01T14:48:26.553Z,28.50
2022-12-01T14:53:33.585Z,28.50
2022-12-01T14:58:36.486Z,29.43
2022-12-01T15:03:43.367Z,26.77
2022-12-01T15:09:04.244Z,28.53
2022-12-01T15:14:23.930Z,29.57
2022-12-01T15:19:37.527Z,30.13
2022-12-01T15:24:42.562Z,30.70
2022-12-01T15:29:47.021Z,28.40
2022-12-01T15:34:54.808Z,28.03
2022-12-01T15:45:25.215Z,29.60
2022-12-01T15:50:33.419Z,30.53
2022-12-01T15:55:39.537Z,29.00
2022-12-01T16:00:42.507Z,30.93
2022-12-01T16:05:46.983Z,36.10
2022-12-01T16:11:11.284Z,27.90
2022-12-01T16:16:38.109Z,33.23
2022-12-01T16:21:47.698Z,31.67
2022-12-01T16:26:52.871Z,29.33
2022-12-01T16:32:19.159Z,31.07
2022-12-01T16:37:23.369Z,30.10
2022-12-01T16:42:26.349Z,26.60
2022-12-01T16:47:33.159Z,26.40
2022-12-01T16:52:45.597Z,27.80
2022-12-01T16:57:49.002Z,28.47
2022-12-01T17:02:52.700Z,28.70
2022-12-01T17:07:57.192Z,30.97
2022-12-01T17:13:00.197Z,29.30
2022-12-01T17:18:03.088Z,31.90
2022-12-01T17:23:07.505Z,28.33
2022-12-01T17:28:10.451Z,29.47
2022-12-01T17:33:13.682Z,27.97
2022-12-01T17:38:17.956Z,27.23
2022-12-01T17:43:20.919Z,29.30
2022-12-01T17:48:23.933Z,27.97
2022-12-01T17:53:29.198Z,28.13
2022-12-01T17:58:32.635Z,28.10
2022-12-01T18:03:35.544Z,29.37
2022-12-01T18:08:40.833Z,28.40
2022-12-01T18:13:46.460Z,28.83
2022-12-01T18:18:49.975Z,31.20
2022-12-01T18:23:55.684Z,29.80
2022-12-01T18:29:00.829Z,26.47
2022-12-01T18:34:06.826Z,30.13
2022-12-01T18:39:12.611Z,28.03
2022-12-01T18:44:15.598Z,32.10
2022-12-01T18:49:18.701Z,31.97
2022-12-01T18:54:23.078Z,30.60
2022-12-01T18:59:26.284Z,34.93
2022-12-01T19:04:29.425Z,31.97
2022-12-01T19:09:33.708Z,65.03
2022-12-01T19:14:36.856Z,36.73
2022-12-01T19:19:39.864Z,28.50
2022-12-01T19:24:49.884Z,34.97
2022-12-01T19:29:53.973Z,28.40
2022-12-01T19:34:57.241Z,34.23
2022-12-01T19:40:01.754Z,29.30
2022-12-01T19:45:05.638Z,38.07
2022-12-01T19:50:09.989Z,30.30
2022-12-01T19:55:14.246Z,30.83
2022-12-01T20:00:17.850Z,35.10
2022-12-01T20:05:20.715Z,28.57
2022-12-01T20:10:25.025Z,28.37
2022-12-01T20:15:27.947Z,27.63
2022-12-01T20:20:30.858Z,28.70
2022-12-01T20:25:35.708Z,27.13
2022-12-01T20:30:41.166Z,28.50
2022-12-01T20:35:44.242Z,29.03
2022-12-01T20:40:51.033Z,34.60
2022-12-01T20:45:54.074Z,27.17
2022-12-01T20:50:57.452Z,28.43
2022-12-01T20:56:04.830Z,29.53
2022-12-01T21:01:09.710Z,29.50
2022-12-01T21:06:14.602Z,28.80
2022-12-01T21:11:43.533Z,28.53
2022-12-01T21:16:49.361Z,29.60
2022-12-01T21:21:52.407Z,28.47
2022-12-01T21:27:00.459Z,29.60
2022-12-01T21:32:13.553Z,29.90
2022-12-01T21:37:22.025Z,30.20
2022-12-01T21:42:29.251Z,27.70
2022-12-01T21:47:32.177Z,29.37
2022-12-01T21:52:41.050Z,29.57
2022-12-01T21:57:47.659Z,29.23
2022-12-01T22:02:52.620Z,29.00
2022-12-01T22:08:00.798Z,28.10
2022-12-01T22:13:10.399Z,28.37
2022-12-01T22:18:22.207Z,28.40
2022-12-01T22:23:32.982Z,27.67
2022-12-01T22:28:37.411Z,26.97
2022-12-01T22:33:40.356Z,29.43
2022-12-01T22:38:44.194Z,27.93
2022-12-01T22:43:49.733Z,28.63
2022-12-01T22:48:54.999Z,26.43
2022-12-01T22:54:21.472Z,27.53
2022-12-01T22:59:30.675Z,27.77
2022-12-01T23:04:35.528Z,27.00
2022-12-01T23:09:41.484Z,25.57
2022-12-01T23:14:48.661Z,28.80
2022-12-01T23:19:53.900Z,26.87
2022-12-01T23:24:57.163Z,27.50
2022-12-01T23:30:01.587Z,27.43
2022-12-01T23:35:05.410Z,28.90
2022-12-01T23:40:19.568Z,27.67
2022-12-01T23:45:27.029Z,29.70
2022-12-01T23:50:31.576Z,28.10
2022-12-01T23:55:35.487Z,27.37
